createdAt,value
2023-05-21T00:00:50.107Z,13.69
2023-05-21T00:01:50.150Z,13.69
2023-05-21T00:02:50.160Z,13.69
2023-05-21T00:03:50.322Z,13.69
2023-05-21T00:04:50.061Z,13.68
2023-05-21T00:05:50.237Z,13.66
2023-05-21T00:06:50.064Z,13.63
2023-05-21T00:07:50.082Z,13.61
2023-05-21T00:08:50.016Z,13.59
2023-05-21T00:09:50.028Z,13.62
2023-05-21T00:10:50.003Z,13.59
2023-05-21T00:11:50.001Z,13.59
2023-05-21T00:12:50.029Z,13.55
2023-05-21T00:13:49.979Z,13.61
2023-05-21T00:14:49.956Z,13.62
2023-05-21T00:15:49.953Z,13.65
2023-05-21T00:16:50.093Z,13.62
2023-05-21T00:17:49.954Z,13.62
2023-05-21T00:18:49.971Z,13.62
2023-05-21T00:19:49.918Z,13.57
2023-05-21T00:20:49.888Z,13.61
2023-05-21T00:21:49.896Z,13.63
2023-05-21T00:22:49.895Z,13.61
2023-05-21T00:23:49.895Z,13.62
2023-05-21T00:24:49.853Z,13.65
2023-05-21T00:25:49.851Z,13.65
2023-05-21T00:26:49.836Z,13.68
2023-05-21T00:27:49.832Z,13.72
2023-05-21T00:28:49.826Z,13.69
2023-05-21T00:29:49.818Z,13.69
2023-05-21T00:30:49.790Z,13.66
2023-05-21T00:31:49.798Z,13.62
2023-05-21T00:32:49.827Z,13.61
2023-05-21T00:33:49.778Z,13.62
2023-05-21T00:34:49.757Z,13.59
2023-05-21T00:35:49.735Z,13.55
2023-05-21T00:36:49.747Z,13.51
2023-05-21T00:37:49.746Z,13.53
2023-05-21T00:38:49.717Z,13.51
2023-05-21T00:39:49.704Z,13.51
2023-05-21T00:40:49.690Z,13.48
2023-05-21T00:41:49.680Z,13.50
2023-05-21T00:42:49.698Z,13.57
2023-05-21T00:43:49.659Z,13.61
2023-05-21T00:44:49.641Z,13.55
2023-05-21T00:45:49.671Z,13.59
2023-05-21T00:46:49.618Z,13.55
2023-05-21T00:47:49.673Z,13.54
2023-05-21T00:48:49.606Z,13.51
2023-05-21T00:49:49.611Z,13.54
2023-05-21T00:50:49.594Z,13.59
2023-05-21T00:51:49.608Z,13.59
2023-05-21T00:52:52.146Z,13.61
2023-05-21T00:53:49.561Z,13.57
2023-05-21T00:54:49.540Z,13.57
2023-05-21T00:55:49.568Z,13.61
2023-05-21T00:56:49.517Z,13.57
2023-05-21T00:57:52.824Z,13.55
2023-05-21T00:58:49.492Z,13.59
2023-05-21T00:59:49.505Z,13.57
2023-05-21T01:00:49.474Z,13.57
2023-05-21T01:01:50.726Z,13.53
2023-05-21T01:02:49.574Z,13.54
2023-05-21T01:03:49.484Z,13.48
2023-05-21T01:04:49.428Z,13.48
2023-05-21T01:05:49.433Z,13.50
2023-05-21T01:06:49.438Z,13.51
2023-05-21T01:07:53.576Z,13.48
2023-05-21T01:08:49.401Z,13.47
2023-05-21T01:09:49.421Z,13.46
2023-05-21T01:10:49.377Z,13.47
2023-05-21T01:11:49.387Z,13.43
2023-05-21T01:12:49.355Z,13.41
2023-05-21T01:13:49.377Z,13.38
2023-05-21T01:14:49.359Z,13.31
2023-05-21T01:15:49.334Z,13.28
2023-05-21T01:16:49.377Z,13.21
2023-05-21T01:17:50.876Z,13.19
2023-05-21T01:18:49.412Z,13.17
2023-05-21T01:19:49.418Z,13.16
2023-05-21T01:20:49.304Z,13.17
2023-05-21T01:21:49.277Z,13.14
2023-05-21T01:22:49.265Z,13.16
2023-05-21T01:23:49.272Z,13.14
2023-05-21T01:24:49.232Z,13.09
2023-05-21T01:25:49.231Z,13.12
2023-05-21T01:26:49.242Z,13.09
2023-05-21T01:27:49.210Z,13.06
2023-05-21T01:28:49.205Z,13.07
2023-05-21T01:29:49.202Z,13.06
2023-05-21T01:30:49.176Z,13.04
2023-05-21T01:31:49.209Z,13.07
2023-05-21T01:32:49.292Z,13.07
2023-05-21T01:33:49.214Z,13.07
2023-05-21T01:34:50.542Z,13.09
2023-05-21T01:35:49.140Z,13.09
2023-05-21T01:36:49.116Z,13.07
2023-05-21T01:37:49.115Z,13.03
2023-05-21T01:38:49.098Z,13.03
2023-05-21T01:39:49.122Z,12.99
2023-05-21T01:40:49.074Z,13.03
2023-05-21T01:41:49.396Z,12.99
2023-05-21T01:42:49.052Z,12.98
2023-05-21T01:43:49.056Z,12.92
2023-05-21T01:44:49.055Z,12.94
2023-05-21T01:45:49.033Z,12.88
2023-05-21T01:46:49.117Z,12.84
2023-05-21T01:47:50.458Z,12.80
2023-05-21T01:48:49.012Z,12.79
2023-05-21T01:49:53.189Z,12.77
2023-05-21T01:50:48.972Z,12.84
2023-05-21T01:51:48.985Z,12.81
2023-05-21T01:52:48.952Z,12.80
2023-05-21T01:53:48.968Z,12.80
2023-05-21T01:54:48.935Z,12.80
2023-05-21T01:55:48.916Z,12.76
2023-05-21T01:56:48.922Z,12.73
2023-05-21T01:57:48.908Z,12.76
2023-05-21T01:58:48.913Z,12.77
2023-05-21T01:59:48.885Z,12.77
2023-05-21T02:00:48.878Z,12.79
2023-05-21T02:01:49.807Z,12.79
2023-05-21T02:02:49.120Z,12.80
2023-05-21T02:03:48.982Z,12.77
2023-05-21T02:04:48.845Z,12.74
2023-05-21T02:05:48.817Z,12.76
2023-05-21T02:06:48.836Z,12.76
2023-05-21T02:07:48.805Z,12.76
2023-05-21T02:08:48.824Z,12.76
2023-05-21T02:09:48.780Z,12.74
2023-05-21T02:10:48.774Z,12.73
2023-05-21T02:11:48.763Z,12.66
2023-05-21T02:12:48.772Z,12.71
2023-05-21T02:13:48.780Z,12.67
2023-05-21T02:14:48.744Z,12.66
2023-05-21T02:15:48.772Z,12.71
2023-05-21T02:16:50.221Z,12.66
2023-05-21T02:17:48.757Z,12.63
2023-05-21T02:18:48.706Z,12.70
2023-05-21T02:19:49.478Z,12.69
2023-05-21T02:20:48.698Z,12.67
2023-05-21T02:21:48.657Z,12.69
2023-05-21T02:22:48.616Z,12.69
2023-05-21T02:23:48.672Z,12.71
2023-05-21T02:24:48.650Z,12.74
2023-05-21T02:25:48.617Z,12.76
2023-05-21T02:26:48.569Z,12.70
2023-05-21T02:27:48.540Z,12.71
2023-05-21T02:28:48.536Z,12.73
2023-05-21T02:29:48.522Z,12.71
2023-05-21T02:30:48.533Z,12.67
2023-05-21T02:31:48.515Z,12.66
2023-05-21T02:32:48.526Z,12.67
2023-05-21T02:33:48.503Z,12.69
2023-05-21T02:34:48.482Z,12.71
2023-05-21T02:35:48.483Z,12.66
2023-05-21T02:36:48.494Z,12.63
2023-05-21T02:37:48.437Z,12.66
2023-05-21T02:38:48.433Z,12.66
2023-05-21T02:39:48.425Z,12.66
2023-05-21T02:40:49.044Z,12.63
2023-05-21T02:41:48.410Z,12.67
2023-05-21T02:42:48.401Z,12.67
2023-05-21T02:43:48.374Z,12.67
2023-05-21T02:44:48.363Z,12.66
2023-05-21T02:45:48.403Z,12.59
2023-05-21T02:46:48.348Z,12.59
2023-05-21T02:47:48.382Z,12.61
2023-05-21T02:48:48.333Z,12.56
2023-05-21T02:49:48.306Z,12.55
2023-05-21T02:50:48.316Z,12.55
2023-05-21T02:51:48.291Z,12.58
2023-05-21T02:52:48.732Z,12.58
2023-05-21T02:53:48.274Z,12.56
2023-05-21T02:54:48.268Z,12.59
2023-05-21T02:55:48.253Z,12.59
2023-05-21T02:56:48.293Z,12.58
2023-05-21T02:57:48.216Z,12.52
2023-05-21T02:58:48.231Z,12.55
2023-05-21T02:59:48.201Z,12.59
2023-05-21T03:00:48.197Z,12.56
2023-05-21T03:01:48.263Z,12.58
2023-05-21T03:02:48.355Z,12.58
2023-05-21T03:03:48.266Z,12.56
2023-05-21T03:04:48.165Z,12.54
2023-05-21T03:05:48.143Z,12.54
2023-05-21T03:06:48.145Z,12.52
2023-05-21T03:07:48.161Z,12.51
2023-05-21T03:08:48.120Z,12.52
2023-05-21T03:09:48.098Z,12.54
2023-05-21T03:10:48.093Z,12.56
2023-05-21T03:11:48.084Z,12.56
2023-05-21T03:12:48.097Z,12.59
2023-05-21T03:13:48.110Z,12.61
2023-05-21T03:14:48.071Z,12.63
2023-05-21T03:15:49.410Z,12.62
2023-05-21T03:16:48.082Z,12.66
2023-05-21T03:17:48.064Z,12.63
2023-05-21T03:18:48.024Z,12.67
2023-05-21T03:19:48.025Z,12.69
2023-05-21T03:20:47.994Z,12.69
2023-05-21T03:21:47.972Z,12.67
2023-05-21T03:22:47.983Z,12.67
2023-05-21T03:23:47.951Z,12.69
2023-05-21T03:24:47.972Z,12.71
2023-05-21T03:25:47.933Z,12.62
2023-05-21T03:26:49.899Z,12.58
2023-05-21T03:27:47.913Z,12.59
2023-05-21T03:28:47.924Z,12.55
2023-05-21T03:29:47.919Z,12.51
2023-05-21T03:30:47.896Z,12.48
2023-05-21T03:31:47.899Z,12.44
2023-05-21T03:32:47.945Z,12.38
2023-05-21T03:33:47.867Z,12.37
2023-05-21T03:34:47.882Z,12.34
2023-05-21T03:35:47.825Z,12.33
2023-05-21T03:36:47.825Z,12.36
2023-05-21T03:37:47.821Z,12.38
2023-05-21T03:38:47.831Z,12.41
2023-05-21T03:39:47.791Z,12.38
2023-05-21T03:40:47.788Z,12.40
2023-05-21T03:41:47.774Z,12.38
2023-05-21T03:42:47.768Z,12.40
2023-05-21T03:43:47.761Z,12.43
2023-05-21T03:44:47.769Z,12.51
2023-05-21T03:45:47.755Z,12.51
2023-05-21T03:46:47.726Z,12.52
2023-05-21T03:47:47.725Z,12.51
2023-05-21T03:48:47.706Z,12.48
2023-05-21T03:49:47.698Z,12.51
2023-05-21T03:50:47.683Z,12.54
2023-05-21T03:51:47.662Z,12.55
2023-05-21T03:52:47.654Z,12.58
2023-05-21T03:53:47.644Z,12.62
2023-05-21T03:54:47.675Z,12.67
2023-05-21T03:55:47.620Z,12.67
2023-05-21T03:56:47.628Z,12.70
2023-05-21T03:57:47.600Z,12.73
2023-05-21T03:58:47.602Z,12.70
2023-05-21T03:59:47.595Z,12.74
2023-05-21T04:00:47.584Z,12.79
2023-05-21T04:01:48.162Z,12.76
2023-05-21T04:02:47.607Z,12.84
2023-05-21T04:03:47.721Z,12.84
2023-05-21T04:04:47.682Z,12.88
2023-05-21T04:05:47.530Z,12.95
2023-05-21T04:06:47.523Z,13.01
2023-05-21T04:07:47.511Z,13.09
2023-05-21T04:08:47.502Z,13.17
2023-05-21T04:09:47.522Z,13.25
2023-05-21T04:10:47.468Z,13.28
2023-05-21T04:11:47.459Z,13.29
2023-05-21T04:12:47.457Z,13.28
2023-05-21T04:13:47.435Z,13.28
2023-05-21T04:14:47.462Z,13.27
2023-05-21T04:15:47.444Z,13.28
2023-05-21T04:16:47.414Z,13.31
2023-05-21T04:17:47.429Z,13.32
2023-05-21T04:18:47.497Z,13.39
2023-05-21T04:19:47.399Z,13.41
2023-05-21T04:20:47.376Z,13.38
2023-05-21T04:21:47.373Z,13.41
2023-05-21T04:22:47.354Z,13.43
2023-05-21T04:23:47.333Z,13.43
2023-05-21T04:24:47.366Z,13.44
2023-05-21T04:25:47.325Z,13.46
2023-05-21T04:26:47.373Z,13.50
2023-05-21T04:27:47.301Z,13.50
2023-05-21T04:28:47.295Z,13.50
2023-05-21T04:29:48.465Z,13.54
2023-05-21T04:30:47.265Z,13.61
2023-05-21T04:31:47.299Z,13.66
2023-05-21T04:32:47.316Z,13.73
2023-05-21T04:33:47.232Z,13.76
2023-05-21T04:34:47.235Z,13.81
2023-05-21T04:35:47.408Z,13.91
2023-05-21T04:36:47.231Z,13.96
2023-05-21T04:37:47.192Z,14.05
2023-05-21T04:38:47.198Z,14.12
2023-05-21T04:39:47.169Z,14.23
2023-05-21T04:40:47.169Z,14.36
2023-05-21T04:41:47.181Z,14.46
2023-05-21T04:42:47.156Z,14.59
2023-05-21T04:43:47.125Z,14.71
2023-05-21T04:44:47.142Z,14.80
2023-05-21T04:45:49.732Z,14.93
2023-05-21T04:46:47.172Z,15.04
2023-05-21T04:47:47.138Z,15.12
2023-05-21T04:48:47.096Z,15.20
2023-05-21T04:49:47.096Z,15.31
2023-05-21T04:50:47.078Z,15.34
2023-05-21T04:51:47.077Z,15.38
2023-05-21T04:52:47.058Z,15.48
2023-05-21T04:53:47.044Z,15.53
2023-05-21T04:54:47.050Z,15.58
2023-05-21T04:55:47.030Z,15.66
2023-05-21T04:56:47.011Z,15.68
2023-05-21T04:57:47.011Z,15.76
2023-05-21T04:58:47.025Z,15.84
2023-05-21T04:59:47.017Z,15.89
2023-05-21T05:00:47.374Z,15.93
2023-05-21T05:01:46.968Z,16.01
2023-05-21T05:02:47.040Z,16.08
2023-05-21T05:03:46.955Z,16.14
2023-05-21T05:04:46.925Z,16.22
2023-05-21T05:05:46.911Z,16.27
2023-05-21T05:06:46.901Z,16.34
2023-05-21T05:07:46.908Z,16.41
2023-05-21T05:08:46.886Z,16.45
2023-05-21T05:09:46.862Z,16.52
2023-05-21T05:10:46.869Z,16.65
2023-05-21T05:11:46.847Z,16.72
2023-05-21T05:12:46.858Z,16.77
2023-05-21T05:13:48.454Z,16.80
2023-05-21T05:14:48.469Z,16.88
2023-05-21T05:15:49.344Z,16.99
2023-05-21T05:16:47.283Z,16.98
2023-05-21T05:17:47.440Z,17.06
2023-05-21T05:18:48.577Z,17.14
2023-05-21T05:19:46.781Z,17.22
2023-05-21T05:20:46.763Z,17.30
2023-05-21T05:21:46.771Z,17.32
2023-05-21T05:22:46.733Z,17.36
2023-05-21T05:23:46.718Z,17.39
2023-05-21T05:24:46.717Z,17.51
2023-05-21T05:25:46.715Z,17.49
2023-05-21T05:26:46.716Z,17.57
2023-05-21T05:27:46.687Z,17.58
2023-05-21T05:28:46.682Z,17.71
2023-05-21T05:29:46.685Z,17.77
2023-05-21T05:30:46.676Z,17.84
2023-05-21T05:31:46.632Z,17.91
2023-05-21T05:32:46.668Z,17.95
2023-05-21T05:33:46.623Z,17.96
2023-05-21T05:34:46.645Z,18.05
2023-05-21T05:35:46.601Z,18.19
2023-05-21T05:36:46.594Z,18.29
2023-05-21T05:37:46.580Z,18.36
2023-05-21T05:38:46.629Z,18.32
2023-05-21T05:39:46.542Z,18.34
2023-05-21T05:40:46.592Z,18.41
2023-05-21T05:41:46.535Z,18.49
2023-05-21T05:42:46.548Z,18.64
2023-05-21T05:43:46.525Z,18.76
2023-05-21T05:44:46.516Z,18.89
2023-05-21T05:45:48.397Z,19.01
2023-05-21T05:46:46.607Z,19.13
2023-05-21T05:47:46.530Z,19.16
2023-05-21T05:48:46.468Z,19.02
2023-05-21T05:49:46.450Z,18.87
2023-05-21T05:50:46.476Z,18.90
2023-05-21T05:51:46.426Z,18.90
2023-05-21T05:52:46.454Z,18.91
2023-05-21T05:53:46.399Z,19.01
2023-05-21T05:54:46.405Z,19.09
2023-05-21T05:55:46.405Z,19.23
2023-05-21T05:56:46.404Z,19.15
2023-05-21T05:57:46.370Z,19.17
2023-05-21T05:58:46.363Z,18.99
2023-05-21T05:59:46.352Z,18.96
2023-05-21T06:00:46.337Z,18.97
2023-05-21T06:01:46.346Z,18.96
2023-05-21T06:02:46.361Z,19.09
2023-05-21T06:03:46.411Z,19.17
2023-05-21T06:04:46.306Z,19.17
2023-05-21T06:05:46.372Z,19.31
2023-05-21T06:06:46.270Z,19.34
2023-05-21T06:07:46.303Z,19.30
2023-05-21T06:08:46.286Z,19.28
2023-05-21T06:09:46.254Z,19.39
2023-05-21T06:10:46.255Z,19.39
2023-05-21T06:11:46.230Z,19.46
2023-05-21T06:12:46.226Z,19.42
2023-05-21T06:13:46.205Z,19.38
2023-05-21T06:14:46.225Z,19.43
2023-05-21T06:15:46.275Z,19.49
2023-05-21T06:16:46.223Z,19.42
2023-05-21T06:17:47.656Z,19.42
2023-05-21T06:18:46.204Z,19.40
2023-05-21T06:19:46.137Z,19.35
2023-05-21T06:20:46.115Z,19.34
2023-05-21T06:21:46.147Z,19.38
2023-05-21T06:22:46.135Z,19.40
2023-05-21T06:23:46.100Z,19.47
2023-05-21T06:24:46.073Z,19.40
2023-05-21T06:25:46.076Z,19.32
2023-05-21T06:26:46.063Z,19.30
2023-05-21T06:27:46.058Z,19.32
2023-05-21T06:28:46.072Z,19.35
2023-05-21T06:29:46.043Z,19.43
2023-05-21T06:30:46.021Z,19.46
2023-05-21T06:31:46.026Z,19.40
2023-05-21T06:32:46.025Z,19.40
2023-05-21T06:33:46.221Z,19.46
2023-05-21T06:34:45.985Z,19.58
2023-05-21T06:35:46.015Z,19.71
2023-05-21T06:36:45.952Z,19.86
2023-05-21T06:37:45.958Z,19.95
2023-05-21T06:38:45.951Z,20.02
2023-05-21T06:39:45.935Z,20.08
2023-05-21T06:40:47.253Z,20.16
2023-05-21T06:41:45.923Z,20.35
2023-05-21T06:42:45.895Z,20.40
2023-05-21T06:43:45.913Z,20.48
2023-05-21T06:44:45.867Z,20.42
2023-05-21T06:45:49.286Z,20.41
2023-05-21T06:46:47.379Z,20.40
2023-05-21T06:47:46.030Z,20.40
2023-05-21T06:48:47.030Z,20.20
2023-05-21T06:49:45.826Z,20.12
2023-05-21T06:50:45.824Z,20.07
2023-05-21T06:51:45.818Z,20.12
2023-05-21T06:52:45.790Z,20.13
2023-05-21T06:53:48.775Z,20.04
2023-05-21T06:54:45.764Z,20.01
2023-05-21T06:55:45.768Z,20.00
2023-05-21T06:56:45.746Z,20.01
2023-05-21T06:57:45.748Z,20.13
2023-05-21T06:58:45.761Z,20.26
2023-05-21T06:59:45.745Z,20.33
2023-05-21T07:00:46.460Z,20.31
2023-05-21T07:01:46.542Z,20.30
2023-05-21T07:02:45.736Z,20.38
2023-05-21T07:03:45.790Z,20.44
2023-05-21T07:04:47.033Z,20.56
2023-05-21T07:05:45.652Z,20.56
2023-05-21T07:06:45.656Z,20.66
2023-05-21T07:07:45.656Z,20.87
2023-05-21T07:08:45.622Z,21.11
2023-05-21T07:09:45.615Z,21.40
2023-05-21T07:10:46.201Z,21.91
2023-05-21T07:11:45.617Z,22.64
2023-05-21T07:12:45.600Z,23.21
2023-05-21T07:13:45.572Z,23.42
2023-05-21T07:14:45.570Z,23.81
2023-05-21T07:15:45.567Z,24.21
2023-05-21T07:16:45.565Z,24.09
2023-05-21T07:17:45.590Z,24.21
2023-05-21T07:18:45.537Z,24.27
2023-05-21T07:19:45.526Z,24.31
2023-05-21T07:20:45.519Z,24.23
2023-05-21T07:21:45.506Z,24.68
2023-05-21T07:22:45.495Z,25.11
2023-05-21T07:23:45.469Z,25.91
2023-05-21T07:24:45.447Z,25.97
2023-05-21T07:25:45.469Z,26.01
2023-05-21T07:26:46.891Z,26.41
2023-05-21T07:27:45.448Z,26.39
2023-05-21T07:28:45.405Z,25.82
2023-05-21T07:29:45.403Z,25.72
2023-05-21T07:30:47.037Z,26.03
2023-05-21T07:31:45.385Z,26.51
2023-05-21T07:32:45.412Z,26.94
2023-05-21T07:33:45.374Z,27.50
2023-05-21T07:34:45.940Z,28.05
2023-05-21T07:35:45.367Z,26.86
2023-05-21T07:36:45.334Z,26.23
2023-05-21T07:37:47.001Z,26.57
2023-05-21T07:38:45.535Z,26.51
2023-05-21T07:39:45.305Z,26.84
2023-05-21T07:40:45.303Z,27.25
2023-05-21T07:41:45.284Z,27.02
2023-05-21T07:42:45.264Z,26.96
2023-05-21T07:43:46.887Z,27.49
2023-05-21T07:44:45.330Z,27.49
2023-05-21T07:45:45.248Z,26.75
2023-05-21T07:46:45.255Z,26.56
2023-05-21T07:47:45.294Z,26.68
2023-05-21T07:48:45.204Z,26.65
2023-05-21T07:49:45.849Z,26.75
2023-05-21T07:50:45.449Z,26.76
2023-05-21T07:51:45.188Z,26.68
2023-05-21T07:52:48.681Z,27.09
2023-05-21T07:53:45.165Z,27.53
2023-05-21T07:54:45.777Z,27.78
2023-05-21T07:55:45.138Z,27.68
2023-05-21T07:56:45.754Z,27.76
2023-05-21T07:57:45.119Z,27.80
2023-05-21T07:58:45.105Z,27.76
2023-05-21T07:59:45.107Z,27.15
2023-05-21T08:00:45.092Z,27.09
2023-05-21T08:01:45.110Z,27.13
2023-05-21T08:02:45.160Z,27.48
2023-05-21T08:03:45.238Z,27.69
2023-05-21T08:04:45.071Z,27.68
2023-05-21T08:05:46.604Z,27.83
2023-05-21T08:06:45.061Z,27.95
2023-05-21T08:07:45.026Z,27.96
2023-05-21T08:08:45.005Z,28.15
2023-05-21T08:09:46.628Z,28.01
2023-05-21T08:10:48.041Z,27.68
2023-05-21T08:11:45.610Z,27.63
2023-05-21T08:12:44.963Z,27.53
2023-05-21T08:13:44.964Z,27.71
2023-05-21T08:14:44.983Z,27.52
2023-05-21T08:15:44.959Z,27.38
2023-05-21T08:16:46.625Z,27.01
2023-05-21T08:17:44.968Z,27.33
2023-05-21T08:18:44.969Z,27.81
2023-05-21T08:19:44.942Z,27.96
2023-05-21T08:20:44.883Z,28.20
2023-05-21T08:21:44.902Z,27.95
2023-05-21T08:22:44.876Z,27.65
2023-05-21T08:23:45.570Z,27.84
2023-05-21T08:24:45.570Z,27.69
2023-05-21T08:25:44.839Z,28.23
2023-05-21T08:26:44.828Z,28.55
2023-05-21T08:27:45.436Z,28.98
2023-05-21T08:28:44.805Z,29.20
2023-05-21T08:29:44.828Z,29.47
2023-05-21T08:30:44.796Z,29.25
2023-05-21T08:31:46.334Z,29.49
2023-05-21T08:32:44.787Z,29.70
2023-05-21T08:33:44.772Z,29.91
2023-05-21T09:08:17.747Z,27.90
2023-05-21T09:09:18.730Z,27.88
2023-05-21T09:10:18.700Z,27.74
2023-05-21T09:11:18.721Z,27.34
2023-05-21T09:12:18.697Z,27.30
2023-05-21T09:13:18.692Z,27.16
2023-05-21T09:14:18.663Z,27.15
2023-05-21T09:15:18.675Z,27.01
2023-05-21T09:16:18.690Z,27.03
2023-05-21T09:17:18.634Z,27.13
2023-05-21T09:18:18.644Z,27.39
2023-05-21T09:19:18.736Z,27.46
2023-05-21T09:20:18.647Z,27.71
2023-05-21T09:21:18.607Z,27.98
2023-05-21T09:22:18.577Z,28.33
2023-05-21T09:23:18.580Z,27.77
2023-05-21T09:24:18.575Z,27.98
2023-05-21T09:25:18.584Z,28.20
2023-05-21T09:26:18.537Z,28.28
2023-05-21T09:27:18.542Z,28.42
2023-05-21T09:28:18.537Z,28.42
2023-05-21T09:29:18.517Z,28.55
2023-05-21T09:30:18.582Z,29.07
2023-05-21T09:31:18.546Z,29.15
2023-05-21T09:32:18.484Z,29.10
2023-05-21T09:33:18.487Z,29.82
2023-05-21T09:34:18.465Z,29.92
2023-05-21T09:35:18.448Z,29.86
2023-05-21T09:36:18.465Z,29.37
2023-05-21T09:37:27.157Z,28.67
2023-05-21T09:38:18.421Z,28.39
2023-05-21T09:39:18.782Z,28.21
2023-05-21T09:40:18.410Z,28.39
2023-05-21T09:41:21.594Z,28.65
2023-05-21T09:42:18.380Z,29.05
2023-05-21T09:43:18.405Z,29.25
2023-05-21T09:44:18.381Z,29.29
2023-05-21T09:45:18.382Z,29.49
2023-05-21T09:46:18.375Z,29.44
2023-05-21T09:47:18.338Z,29.48
2023-05-21T09:48:18.324Z,29.42
2023-05-21T09:49:18.333Z,29.95
2023-05-21T09:50:18.351Z,30.60
2023-05-21T09:51:18.360Z,30.54
2023-05-21T09:52:18.295Z,30.42
2023-05-21T09:53:18.264Z,30.97
2023-05-21T09:54:18.278Z,30.94
2023-05-21T09:55:19.379Z,31.30
2023-05-21T09:56:18.254Z,30.97
2023-05-21T09:57:18.235Z,30.81
2023-05-21T09:58:18.214Z,30.72
2023-05-21T09:59:19.895Z,30.34
2023-05-21T10:00:19.405Z,30.56
2023-05-21T10:01:18.220Z,30.82
2023-05-21T10:02:18.319Z,31.25
2023-05-21T10:03:20.965Z,32.03
2023-05-21T10:04:18.168Z,32.13
2023-05-21T10:05:18.160Z,32.41
2023-05-21T10:06:18.159Z,32.05
2023-05-21T10:07:18.129Z,32.10
2023-05-21T10:08:18.715Z,31.31
2023-05-21T10:09:18.114Z,30.51
2023-05-21T10:10:18.708Z,30.72
2023-05-21T10:11:21.842Z,31.27
2023-05-21T10:12:18.073Z,32.03
2023-05-21T10:13:18.083Z,31.75
2023-05-21T10:14:19.673Z,31.90
2023-05-21T10:15:18.055Z,31.85
2023-05-21T10:16:18.672Z,31.82
2023-05-21T10:17:18.036Z,31.94
2023-05-21T10:18:18.052Z,32.14
2023-05-21T10:19:18.102Z,32.76
2023-05-21T10:20:19.612Z,32.34
2023-05-21T10:21:17.999Z,32.28
2023-05-21T10:22:18.018Z,32.32
2023-05-21T10:23:17.977Z,32.39
2023-05-21T10:24:17.956Z,32.19
2023-05-21T10:25:17.954Z,32.21
2023-05-21T10:26:17.940Z,32.87
2023-05-21T10:27:17.963Z,33.17
2023-05-21T10:28:17.927Z,33.26
2023-05-21T10:29:19.612Z,33.00
2023-05-21T10:30:17.899Z,32.66
2023-05-21T10:31:17.899Z,32.51
2023-05-21T10:32:19.693Z,32.72
2023-05-21T10:33:18.515Z,32.76
2023-05-21T10:34:17.868Z,33.05
2023-05-21T10:35:19.448Z,33.78
2023-05-21T10:36:17.851Z,33.93
2023-05-21T10:37:17.883Z,33.60
2023-05-21T10:38:17.813Z,32.90
2023-05-21T10:39:18.535Z,32.32
2023-05-21T10:40:21.245Z,32.31
2023-05-21T10:41:18.508Z,32.02
2023-05-21T10:42:19.390Z,31.25
2023-05-21T10:43:17.788Z,30.68
2023-05-21T10:44:18.130Z,30.66
2023-05-21T10:45:17.770Z,30.67
2023-05-21T10:46:18.494Z,30.75
2023-05-21T10:47:18.400Z,30.32
2023-05-21T10:48:17.782Z,30.45
2023-05-21T10:49:18.410Z,30.56
2023-05-21T10:50:17.715Z,30.73
2023-05-21T10:51:18.337Z,31.04
2023-05-21T10:52:18.344Z,31.19
2023-05-21T10:53:17.690Z,31.45
2023-05-21T10:54:17.721Z,31.18
2023-05-21T10:55:17.681Z,30.85
2023-05-21T10:56:17.638Z,30.49
2023-05-21T10:57:17.668Z,30.16
2023-05-21T10:58:17.616Z,29.97
2023-05-21T10:59:17.910Z,30.06
2023-05-21T11:00:19.124Z,29.78
2023-05-21T11:01:17.636Z,29.37
2023-05-21T11:02:17.653Z,29.25
2023-05-21T11:03:17.706Z,29.60
2023-05-21T11:04:17.592Z,29.57
2023-05-21T11:05:18.540Z,29.62
2023-05-21T11:06:17.553Z,30.06
2023-05-21T11:07:18.106Z,30.83
2023-05-21T11:08:19.654Z,31.45
2023-05-21T11:09:18.169Z,31.47
2023-05-21T11:10:18.207Z,31.76
2023-05-21T11:11:17.528Z,31.64
2023-05-21T11:12:18.756Z,31.46
2023-05-21T11:13:18.145Z,31.53
2023-05-21T11:14:18.750Z,31.49
2023-05-21T11:15:17.706Z,31.00
2023-05-21T11:16:18.069Z,31.35
2023-05-21T11:17:18.224Z,31.54
2023-05-21T11:18:17.443Z,31.34
2023-05-21T11:19:17.469Z,31.15
2023-05-21T11:20:17.400Z,31.18
2023-05-21T11:21:17.428Z,31.10
2023-05-21T11:22:17.376Z,31.00
2023-05-21T11:23:17.387Z,31.03
2023-05-21T11:24:17.361Z,30.88
2023-05-21T11:25:17.363Z,31.12
2023-05-21T11:26:17.365Z,31.38
2023-05-21T11:27:18.457Z,31.64
2023-05-21T11:28:17.912Z,31.57
2023-05-21T11:29:18.876Z,31.60
2023-05-21T11:30:17.337Z,31.87
2023-05-21T11:31:17.341Z,31.57
2023-05-21T11:32:17.553Z,31.35
2023-05-21T11:33:17.589Z,31.49
2023-05-21T11:34:17.306Z,32.07
2023-05-21T11:35:17.913Z,32.14
2023-05-21T11:36:17.848Z,32.07
2023-05-21T11:37:17.249Z,32.16
2023-05-21T11:38:17.237Z,32.10
2023-05-21T11:39:18.948Z,32.58
2023-05-21T11:40:17.520Z,32.78
2023-05-21T11:41:17.828Z,32.81
2023-05-21T11:42:17.189Z,32.47
2023-05-21T11:43:17.196Z,32.34
2023-05-21T11:44:17.199Z,32.50
2023-05-21T11:45:17.189Z,32.81
2023-05-21T11:46:17.217Z,32.66
2023-05-21T11:47:17.174Z,32.25
2023-05-21T11:48:17.138Z,32.77
2023-05-21T11:49:17.132Z,32.72
2023-05-21T11:50:17.127Z,33.06
2023-05-21T11:51:17.109Z,32.96
2023-05-21T11:52:17.100Z,33.40
2023-05-21T11:53:17.104Z,33.49
2023-05-21T11:54:18.717Z,33.57
2023-05-21T11:55:17.536Z,33.34
2023-05-21T11:56:17.049Z,33.07
2023-05-21T11:57:17.064Z,32.98
2023-05-21T11:58:17.026Z,33.34
2023-05-21T11:59:18.839Z,33.00
2023-05-21T12:00:17.033Z,33.34
2023-05-21T12:01:18.627Z,33.92
2023-05-21T12:02:16.989Z,33.81
2023-05-21T12:03:17.079Z,33.28
2023-05-21T12:04:18.606Z,32.51
2023-05-21T12:05:17.028Z,32.41
2023-05-21T12:06:17.030Z,32.68
2023-05-21T12:07:16.962Z,32.65
2023-05-21T12:08:16.920Z,32.36
2023-05-21T12:09:18.566Z,32.56
2023-05-21T12:10:16.913Z,33.22
2023-05-21T12:11:16.933Z,33.75
2023-05-21T12:12:16.895Z,32.91
2023-05-21T12:13:16.884Z,32.27
2023-05-21T12:14:17.506Z,32.59
2023-05-21T12:15:16.892Z,32.62
2023-05-21T12:16:16.891Z,32.50
2023-05-21T12:17:16.860Z,32.10
2023-05-21T12:18:16.848Z,32.24
2023-05-21T12:19:16.833Z,32.14
2023-05-21T12:20:16.843Z,31.98
2023-05-21T12:21:16.843Z,31.60
2023-05-21T12:22:16.824Z,31.75
2023-05-21T12:23:16.780Z,32.21
2023-05-21T12:24:16.813Z,32.39
2023-05-21T12:25:17.712Z,32.88
2023-05-21T12:26:16.791Z,33.26
2023-05-21T12:27:16.809Z,33.12
2023-05-21T12:28:16.764Z,33.28
2023-05-21T12:29:17.980Z,34.00
2023-05-21T12:30:16.736Z,34.30
2023-05-21T12:31:16.748Z,34.78
2023-05-21T12:32:16.703Z,34.93
2023-05-21T12:33:16.706Z,34.98
2023-05-21T12:34:16.711Z,34.24
2023-05-21T12:35:16.704Z,34.16
2023-05-21T12:36:16.658Z,33.72
2023-05-21T12:37:16.657Z,33.74
2023-05-21T12:38:16.678Z,34.52
2023-05-21T12:39:16.632Z,34.67
2023-05-21T12:40:16.631Z,35.18
2023-05-21T12:41:16.606Z,35.32
2023-05-21T12:42:16.602Z,35.52
2023-05-21T12:43:16.612Z,36.00
2023-05-21T12:44:16.591Z,35.81
2023-05-21T12:45:16.556Z,34.52
2023-05-21T12:46:16.635Z,35.25
2023-05-21T12:47:16.542Z,35.61
2023-05-21T12:48:16.540Z,35.46
2023-05-21T12:49:16.527Z,34.38
2023-05-21T12:50:16.566Z,34.14
2023-05-21T12:51:16.506Z,33.79
2023-05-21T12:52:16.514Z,33.35
2023-05-21T12:53:16.498Z,33.56
2023-05-21T12:54:16.513Z,33.97
2023-05-21T12:55:16.602Z,33.94
2023-05-21T12:56:16.497Z,34.14
2023-05-21T12:57:16.450Z,34.84
2023-05-21T12:58:16.469Z,34.76
2023-05-21T12:59:16.429Z,34.06
2023-05-21T13:00:16.434Z,33.74
2023-05-21T13:01:16.473Z,33.24
2023-05-21T13:02:16.410Z,32.98
2023-05-21T13:03:16.491Z,32.91
2023-05-21T13:04:16.418Z,32.35
2023-05-21T13:05:16.369Z,32.50
2023-05-21T13:06:16.389Z,32.71
2023-05-21T13:07:16.350Z,32.66
2023-05-21T13:08:16.360Z,32.63
2023-05-21T13:09:16.333Z,32.71
2023-05-21T13:10:16.709Z,32.49
2023-05-21T13:11:16.312Z,32.87
2023-05-21T13:12:16.342Z,33.09
2023-05-21T13:13:16.294Z,32.10
2023-05-21T13:14:16.291Z,31.22
2023-05-21T13:15:16.277Z,30.96
2023-05-21T13:16:16.319Z,30.73
2023-05-21T13:17:16.280Z,30.61
2023-05-21T13:18:17.576Z,31.28
2023-05-21T13:19:16.263Z,32.03
2023-05-21T13:20:16.227Z,32.65
2023-05-21T13:21:16.215Z,31.91
2023-05-21T13:22:16.237Z,31.38
2023-05-21T13:23:16.202Z,31.34
2023-05-21T13:24:16.200Z,31.34
2023-05-21T13:25:16.183Z,31.23
2023-05-21T13:26:16.176Z,31.10